createdAt,value
2023-05-19T00:01:48.656Z,100934.34
2023-05-19T00:04:17.061Z,100936.06
2023-05-19T00:06:50.351Z,100947.59
2023-05-19T00:09:18.621Z,100915.38
2023-05-19T00:11:46.895Z,100926.34
2023-05-19T00:14:15.157Z,100928.56
2023-05-19T00:16:43.801Z,100939.88
2023-05-19T00:19:12.968Z,100945.69
2023-05-19T00:21:41.237Z,100914.44
2023-05-19T00:24:09.033Z,100937.84
2023-05-19T00:26:37.943Z,100946.16
2023-05-19T00:29:06.013Z,100944.53
2023-05-19T00:31:34.445Z,100949.31
2023-05-19T00:34:02.420Z,100949.44
2023-05-19T00:36:31.676Z,100953.97
2023-05-19T00:38:59.472Z,100951.63
2023-05-19T00:41:27.158Z,100945.59
2023-05-19T00:43:55.364Z,100946.75
2023-05-19T00:46:23.184Z,100940.88
2023-05-19T00:48:50.937Z,100942.25
2023-05-19T00:51:19.064Z,100953.38
2023-05-19T00:53:49.005Z,100937.28
2023-05-19T00:56:17.505Z,100949.00
2023-05-19T00:58:45.793Z,100953.72
2023-05-19T01:01:14.080Z,100954.44
2023-05-19T01:03:43.827Z,100960.59
2023-05-19T01:06:11.824Z,100960.81
2023-05-19T01:08:40.568Z,100953.38
2023-05-19T01:11:09.745Z,100957.44
2023-05-19T01:13:38.644Z,100964.34
2023-05-19T01:16:12.567Z,100972.88
2023-05-19T01:18:50.808Z,100974.09
2023-05-19T01:21:51.911Z,100979.66
2023-05-19T01:24:45.429Z,100971.03
2023-05-19T01:27:34.194Z,100966.84
2023-05-19T01:30:23.023Z,100956.38
2023-05-19T01:32:53.822Z,100955.78
2023-05-19T01:35:24.316Z,100952.78
2023-05-19T01:37:56.283Z,100930.34
2023-05-19T01:40:26.649Z,100954.34
2023-05-19T01:42:57.695Z,100934.59
2023-05-19T01:45:29.103Z,100947.97
2023-05-19T01:47:59.276Z,100947.72
2023-05-19T01:50:27.102Z,100949.97
2023-05-19T01:52:55.570Z,100958.13
2023-05-19T01:55:23.877Z,100949.47
2023-05-19T01:58:02.370Z,100951.06
2023-05-19T02:00:45.127Z,100945.19
2023-05-19T02:03:23.923Z,100953.91
2023-05-19T02:05:59.433Z,100952.63
2023-05-19T02:08:31.043Z,100966.00
2023-05-19T02:11:07.336Z,100970.00
2023-05-19T02:13:40.600Z,100970.69
2023-05-19T02:16:13.376Z,100968.03
2023-05-19T02:18:41.222Z,100962.91
2023-05-19T02:21:09.057Z,100969.78
2023-05-19T02:23:36.910Z,100971.19
2023-05-19T02:26:04.942Z,100985.25
2023-05-19T02:28:33.000Z,100977.94
2023-05-19T02:31:00.703Z,100962.78
2023-05-19T02:33:30.110Z,100972.25
2023-05-19T02:35:57.972Z,100969.19
2023-05-19T02:38:25.788Z,100961.28
2023-05-19T02:40:53.667Z,100964.66
2023-05-19T02:43:21.399Z,100969.38
2023-05-19T02:45:49.041Z,100976.44
2023-05-19T02:48:17.225Z,100974.06
2023-05-19T02:50:46.696Z,100973.41
2023-05-19T02:53:14.344Z,100952.97
2023-05-19T02:55:43.190Z,100958.28
2023-05-19T02:58:13.425Z,100964.41
2023-05-19T03:00:41.526Z,100895.88
2023-05-19T03:03:11.818Z,100952.16
2023-05-19T03:05:41.199Z,100967.66
2023-05-19T03:08:10.188Z,100977.34
2023-05-19T03:10:38.064Z,100965.66
2023-05-19T03:13:05.988Z,100968.06
2023-05-19T03:15:33.777Z,100974.47
2023-05-19T03:18:01.701Z,100977.22
2023-05-19T03:20:29.814Z,100976.25
2023-05-19T03:22:58.196Z,100981.28
2023-05-19T03:25:27.536Z,100977.03
2023-05-19T03:27:55.447Z,100988.97
2023-05-19T03:30:23.594Z,100980.66
2023-05-19T03:32:51.717Z,100975.72
2023-05-19T03:35:19.524Z,100985.53
2023-05-19T03:37:47.288Z,100980.38
2023-05-19T03:40:15.100Z,100984.47
2023-05-19T03:42:44.246Z,100990.50
2023-05-19T03:45:12.004Z,100995.63
2023-05-19T03:47:39.825Z,100984.25
2023-05-19T03:50:08.384Z,100991.88
2023-05-19T03:52:36.351Z,100997.78
2023-05-19T03:55:04.674Z,101001.69
2023-05-19T03:57:32.390Z,101002.13
2023-05-19T04:00:01.432Z,100995.81
2023-05-19T04:02:29.336Z,101005.72
2023-05-19T04:04:57.486Z,101006.19
2023-05-19T04:07:25.341Z,101006.13
2023-05-19T04:09:53.203Z,101009.75
2023-05-19T04:12:20.906Z,101025.63
2023-05-19T04:14:49.731Z,101013.91
2023-05-19T04:17:18.861Z,101011.13
2023-05-19T04:19:46.663Z,101009.34
2023-05-19T04:22:14.736Z,101004.91
2023-05-19T04:24:42.968Z,101010.22
2023-05-19T04:27:10.704Z,101012.63
2023-05-19T04:29:38.392Z,101007.59
2023-05-19T04:32:06.504Z,101017.72
2023-05-19T04:34:35.707Z,101020.66
2023-05-19T04:37:03.373Z,101010.72
2023-05-19T04:39:31.377Z,100998.22
2023-05-19T04:41:59.030Z,101022.13
2023-05-19T04:44:26.689Z,101029.56
2023-05-19T04:46:54.680Z,101013.09
2023-05-19T04:49:23.140Z,101028.59
2023-05-19T04:51:53.363Z,101026.44
2023-05-19T04:54:23.799Z,101034.75
2023-05-19T04:56:51.434Z,101042.53
2023-05-19T04:59:19.066Z,101036.88
2023-05-19T05:01:46.988Z,101048.97
2023-05-19T05:04:14.778Z,101037.91
2023-05-19T05:06:42.426Z,101005.09
2023-05-19T05:09:11.970Z,101055.09
2023-05-19T05:11:40.182Z,101022.53
2023-05-19T05:14:08.509Z,101036.63
2023-05-19T05:16:37.115Z,101042.91
2023-05-19T05:19:05.382Z,101051.16
2023-05-19T05:21:33.706Z,101051.06
2023-05-19T05:24:02.349Z,101051.59
2023-05-19T05:26:34.296Z,101048.75
2023-05-19T05:29:02.457Z,101040.69
2023-05-19T05:31:30.315Z,101043.06
2023-05-19T05:33:58.370Z,101053.56
2023-05-19T05:36:26.363Z,101057.69
2023-05-19T05:38:54.147Z,101053.44
2023-05-19T05:41:21.783Z,101058.00
2023-05-19T05:43:52.379Z,101052.31
2023-05-19T05:46:20.015Z,101054.72
2023-05-19T05:48:48.121Z,101059.53
2023-05-19T05:51:16.761Z,101053.31
2023-05-19T05:53:47.415Z,101061.22
2023-05-19T05:56:15.665Z,101053.25
2023-05-19T05:58:43.535Z,101062.63
2023-05-19T06:01:12.619Z,101066.34
2023-05-19T06:03:41.310Z,101068.72
2023-05-19T06:06:10.649Z,101066.22
2023-05-19T06:08:38.285Z,101055.06
2023-05-19T06:11:06.058Z,101066.41
2023-05-19T06:13:34.081Z,101070.50
2023-05-19T06:16:02.295Z,101070.19
2023-05-19T06:18:31.672Z,101066.72
2023-05-19T06:20:59.765Z,101064.50
2023-05-19T06:23:27.431Z,101062.00
2023-05-19T06:25:55.037Z,101068.44
2023-05-19T06:28:23.184Z,101078.59
2023-05-19T06:30:50.817Z,101067.59
2023-05-19T06:33:18.485Z,101070.72
2023-05-19T06:35:47.917Z,101074.25
2023-05-19T06:38:16.249Z,101069.78
2023-05-19T06:40:44.024Z,101082.59
2023-05-19T06:43:11.917Z,101071.88
2023-05-19T06:45:39.517Z,101075.19
2023-05-19T06:48:07.238Z,101086.03
2023-05-19T06:50:36.149Z,101091.03
2023-05-19T06:53:05.294Z,101095.50
2023-05-19T06:55:34.388Z,101089.81
2023-05-19T06:58:03.562Z,101086.72
2023-05-19T07:00:31.473Z,101086.88
2023-05-19T07:02:59.307Z,101086.94
2023-05-19T07:05:27.278Z,101077.53
2023-05-19T07:07:54.907Z,101086.94
2023-05-19T07:10:24.138Z,101088.16
2023-05-19T07:12:52.102Z,101088.63
2023-05-19T07:15:19.764Z,101089.53
2023-05-19T07:17:47.564Z,101093.09
2023-05-19T07:20:15.513Z,101095.41
2023-05-19T07:22:50.712Z,101088.72
2023-05-19T07:25:18.849Z,101101.75
2023-05-19T07:27:48.094Z,101081.81
2023-05-19T07:30:15.713Z,101088.22
2023-05-19T07:32:43.932Z,101062.84
2023-05-19T07:35:11.678Z,101086.84
2023-05-19T07:37:39.468Z,101084.28
2023-05-19T07:40:08.699Z,101076.66
2023-05-19T07:42:36.406Z,101065.56
2023-05-19T07:45:06.660Z,101079.09
2023-05-19T07:47:34.857Z,101069.16
2023-05-19T07:50:03.118Z,101072.25
2023-05-19T07:52:30.899Z,101073.66
2023-05-19T07:54:59.524Z,101079.19
2023-05-19T07:57:27.372Z,101075.00
2023-05-19T07:59:55.211Z,101067.28
2023-05-19T08:02:24.982Z,101069.09
2023-05-19T08:04:52.862Z,101075.19
2023-05-19T08:07:20.682Z,101068.97
2023-05-19T08:09:48.693Z,101078.69
2023-05-19T08:12:16.378Z,101081.44
2023-05-19T08:14:44.005Z,101082.06
2023-05-19T08:17:11.949Z,101082.03
2023-05-19T08:19:40.984Z,101084.88
2023-05-19T08:22:08.706Z,101084.13
2023-05-19T08:24:36.883Z,101085.72
2023-05-19T08:27:05.166Z,101049.63
2023-05-19T08:29:32.974Z,101040.25
2023-05-19T08:32:01.042Z,101089.03
2023-05-19T08:34:28.704Z,101084.22
2023-05-19T08:36:57.827Z,101080.50
2023-05-19T08:39:25.853Z,101081.34
2023-05-19T08:41:53.647Z,101083.75
2023-05-19T08:44:23.038Z,101078.66
2023-05-19T08:46:54.818Z,101086.44
2023-05-19T08:49:27.874Z,101065.09
2023-05-19T08:52:06.252Z,101078.03
2023-05-19T08:54:46.700Z,101083.13
2023-05-19T08:57:14.833Z,101083.44
2023-05-19T08:59:43.815Z,101067.31
2023-05-19T09:02:13.367Z,101081.94
2023-05-19T09:04:42.381Z,101084.00
2023-05-19T09:07:13.076Z,101057.00
2023-05-19T09:09:41.016Z,101078.44
2023-05-19T09:12:09.128Z,101078.84
2023-05-19T09:14:37.230Z,101075.69
2023-05-19T09:17:05.130Z,101068.78
2023-05-19T09:19:33.383Z,101057.47
2023-05-19T09:22:01.874Z,101062.56
2023-05-19T09:24:31.670Z,101064.75
2023-05-19T09:27:00.446Z,101060.41
2023-05-19T09:29:28.228Z,101076.84
2023-05-19T09:31:56.535Z,101068.25
2023-05-19T09:34:24.495Z,101066.16
2023-05-19T09:36:52.538Z,101062.78
2023-05-19T09:39:20.800Z,101054.69
2023-05-19T09:41:52.370Z,101064.94
2023-05-19T09:44:22.825Z,101055.09
2023-05-19T09:46:51.222Z,101058.84
2023-05-19T09:49:20.707Z,101036.66
2023-05-19T09:51:50.559Z,101049.47
2023-05-19T09:54:20.494Z,101048.38
2023-05-19T09:56:57.809Z,101046.25
2023-05-19T09:59:26.152Z,101035.75
2023-05-19T10:01:55.206Z,101029.09
2023-05-19T10:04:23.800Z,101045.38
2023-05-19T10:06:52.253Z,101026.66
2023-05-19T10:09:22.757Z,101030.72
2023-05-19T10:11:52.898Z,101031.88
2023-05-19T10:14:23.236Z,101025.13
2023-05-19T10:16:51.812Z,101025.72
2023-05-19T10:19:22.586Z,101021.00
2023-05-19T10:21:51.546Z,101013.44
2023-05-19T10:24:19.632Z,101012.09
2023-05-19T10:26:51.843Z,101010.53
2023-05-19T10:29:25.588Z,101007.84
2023-05-19T10:31:55.864Z,100992.66
2023-05-19T10:34:50.565Z,101001.38
2023-05-19T10:37:38.382Z,100999.91
2023-05-19T10:40:10.947Z,101004.03
2023-05-19T10:42:51.281Z,100992.53
2023-05-19T10:45:22.878Z,100997.34
2023-05-19T10:47:51.452Z,100992.03
2023-05-19T10:50:20.785Z,100991.56
2023-05-19T10:52:56.061Z,100985.03
2023-05-19T10:55:50.036Z,100986.47
2023-05-19T10:58:38.910Z,100994.44
2023-05-19T11:01:14.187Z,101009.47
2023-05-19T11:03:46.801Z,101015.19
2023-05-19T11:06:21.569Z,101015.75
2023-05-19T11:08:53.573Z,100989.38
2023-05-19T11:11:23.291Z,100994.75
2023-05-19T11:13:52.466Z,100995.19
2023-05-19T11:16:27.328Z,100997.00
2023-05-19T11:18:55.886Z,101010.72
2023-05-19T11:21:23.668Z,100995.69
2023-05-19T11:23:52.170Z,101006.09
2023-05-19T11:26:46.634Z,101002.56
2023-05-19T11:29:15.303Z,100986.25
2023-05-19T11:31:44.737Z,101017.06
2023-05-19T11:34:13.243Z,101010.16
2023-05-19T11:36:42.042Z,101017.84
2023-05-19T11:39:11.456Z,101020.72
2023-05-19T11:41:39.514Z,101024.34
2023-05-19T11:44:10.425Z,101022.47
2023-05-19T11:46:38.534Z,101035.06
2023-05-19T11:49:07.766Z,101017.94
2023-05-19T11:51:36.703Z,101022.41
2023-05-19T11:54:05.254Z,101014.72
2023-05-19T11:56:34.611Z,101013.81
2023-05-19T11:59:02.382Z,101016.75
2023-05-19T12:01:30.413Z,101000.66
2023-05-19T12:03:58.202Z,100995.56
2023-05-19T12:06:28.224Z,100976.34
2023-05-19T12:08:58.099Z,100980.03
2023-05-19T12:11:28.175Z,100993.22
2023-05-19T12:13:58.909Z,101001.75
2023-05-19T12:16:33.833Z,100993.78
2023-05-19T12:19:02.274Z,101003.13
2023-05-19T12:21:34.109Z,101020.41
2023-05-19T12:24:03.414Z,101001.44
2023-05-19T12:26:31.317Z,101006.25
2023-05-19T12:28:59.420Z,101004.69
2023-05-19T12:31:27.604Z,101001.66
2023-05-19T12:33:56.272Z,101007.25
2023-05-19T12:36:24.520Z,101000.03
2023-05-19T12:38:55.625Z,100981.44
2023-05-19T12:41:24.875Z,101000.03
2023-05-19T12:43:52.524Z,101003.41
2023-05-19T12:46:20.360Z,101001.75
2023-05-19T12:48:48.166Z,100996.38
2023-05-19T12:51:19.608Z,101000.06
2023-05-19T12:53:50.008Z,100991.88
2023-05-19T12:56:19.307Z,100994.78
2023-05-19T12:58:47.017Z,100974.28
2023-05-19T13:01:19.849Z,100982.25
2023-05-19T13:03:47.850Z,100981.41
2023-05-19T13:06:15.868Z,100993.19
2023-05-19T13:08:43.712Z,101013.25
2023-05-19T13:11:11.517Z,101030.66
2023-05-19T13:13:40.589Z,101053.03
2023-05-19T13:16:08.566Z,101162.72
2023-05-19T13:18:36.268Z,101167.94
2023-05-19T13:21:04.392Z,101120.16
2023-05-19T13:23:32.270Z,101101.81
2023-05-19T13:26:00.351Z,101102.94
2023-05-19T13:28:28.035Z,101107.03
2023-05-19T13:30:57.386Z,101105.06
2023-05-19T13:33:25.384Z,101104.06
2023-05-19T13:35:53.041Z,101008.31
2023-05-19T13:38:22.335Z,101001.50
2023-05-19T13:40:50.026Z,101035.34
2023-05-19T13:43:18.165Z,101021.81
2023-05-19T13:45:45.861Z,100999.00
2023-05-19T13:48:15.181Z,100998.97
2023-05-19T13:50:42.993Z,101014.75
2023-05-19T13:53:10.905Z,101007.66
2023-05-19T13:55:38.958Z,100996.72
2023-05-19T13:58:06.830Z,100917.06
2023-05-19T14:00:35.180Z,100977.47
2023-05-19T14:03:03.994Z,100981.56
2023-05-19T14:05:33.180Z,100979.97
2023-05-19T14:08:01.002Z,100979.97
2023-05-19T14:10:28.836Z,100986.31
2023-05-19T14:13:28.950Z,100988.47
2023-05-19T14:15:44.375Z,100983.88
2023-05-19T14:18:12.137Z,100980.13
2023-05-19T14:20:41.588Z,101005.31
2023-05-19T14:23:10.786Z,100995.09
2023-05-19T14:25:38.424Z,100997.53
2023-05-19T14:28:06.104Z,100994.88
2023-05-19T14:30:34.620Z,100992.91
2023-05-19T14:33:03.266Z,100992.28
2023-05-19T14:35:30.967Z,100979.00
2023-05-19T14:38:00.247Z,100992.25
2023-05-19T14:40:27.916Z,100979.69
2023-05-19T14:42:55.653Z,100996.41
2023-05-19T14:45:23.676Z,101001.41
2023-05-19T14:47:51.293Z,101028.34
2023-05-19T14:50:19.140Z,101029.31
2023-05-19T14:52:47.273Z,101009.38
2023-05-19T14:55:16.578Z,101013.41
2023-05-19T14:57:44.386Z,101001.97
2023-05-19T15:00:13.712Z,101007.56
2023-05-19T15:02:41.462Z,101006.09
2023-05-19T15:05:09.546Z,100992.91
2023-05-19T15:07:38.190Z,101000.72
2023-05-19T15:10:06.645Z,100998.91
2023-05-19T15:12:35.915Z,101000.84
2023-05-19T15:15:04.386Z,101000.25
2023-05-19T15:17:32.287Z,100996.47
2023-05-19T15:20:00.170Z,100984.19
2023-05-19T15:22:28.253Z,100995.16
2023-05-19T15:24:55.849Z,100991.47
2023-05-19T15:27:23.606Z,100986.06
2023-05-19T15:29:53.160Z,100995.00
2023-05-19T15:32:21.090Z,100996.34
2023-05-19T15:34:48.819Z,100998.97
2023-05-19T15:37:16.765Z,100994.09
2023-05-19T15:39:44.444Z,100983.84
2023-05-19T15:42:12.117Z,100991.63
2023-05-19T15:44:40.132Z,100998.41
2023-05-19T15:47:09.169Z,100988.88
2023-05-19T15:49:37.030Z,101008.69
2023-05-19T15:52:05.280Z,101017.78
2023-05-19T15:54:33.060Z,101015.69
2023-05-19T15:57:00.813Z,101022.38
2023-05-19T15:59:28.909Z,101044.41
2023-05-19T16:01:56.616Z,101062.91
2023-05-19T16:04:25.930Z,101062.38
2023-05-19T16:06:53.866Z,101053.06
2023-05-19T16:09:21.623Z,101032.69
2023-05-19T16:11:49.314Z,101052.56
2023-05-19T16:14:17.277Z,101044.56
2023-05-19T16:16:45.021Z,101057.19
2023-05-19T16:19:12.752Z,101053.13
2023-05-19T16:21:42.061Z,101049.59
2023-05-19T16:24:09.679Z,101040.50
2023-05-19T16:26:37.284Z,101036.25
2023-05-19T16:29:05.401Z,101056.53
2023-05-19T16:31:33.219Z,101081.72
2023-05-19T16:34:00.885Z,101103.00
2023-05-19T16:36:28.871Z,101126.47
2023-05-19T16:38:57.975Z,101137.25
2023-05-19T16:41:30.408Z,101134.34
2023-05-19T16:43:58.268Z,101110.63
2023-05-19T16:46:26.414Z,101138.09
2023-05-19T16:48:58.505Z,101136.00
2023-05-19T16:51:26.206Z,101151.91
2023-05-19T16:53:54.110Z,101157.84
2023-05-19T16:56:23.395Z,101133.50
2023-05-19T16:58:51.314Z,101125.09
2023-05-19T17:01:18.955Z,101114.50
2023-05-19T17:03:46.797Z,101101.25
2023-05-19T17:06:14.670Z,101085.47
2023-05-19T17:08:42.340Z,101083.56
2023-05-19T17:11:10.209Z,101091.88
2023-05-19T17:13:39.532Z,101091.13
2023-05-19T17:16:07.395Z,101099.22
2023-05-19T17:18:35.364Z,101087.22
2023-05-19T17:21:03.244Z,101092.69
2023-05-19T17:23:31.046Z,101074.88
2023-05-19T17:25:58.895Z,101076.78
2023-05-19T17:28:26.641Z,101085.94
2023-05-19T17:30:55.758Z,101092.94
2023-05-19T17:33:24.195Z,101099.41
2023-05-19T17:35:52.166Z,101091.81
2023-05-19T17:38:19.772Z,101104.84
2023-05-19T17:40:47.565Z,101092.75
2023-05-19T17:43:15.352Z,101118.63
2023-05-19T17:45:42.990Z,101120.44
2023-05-19T17:48:12.430Z,101117.09
2023-05-19T17:50:40.306Z,101096.69
2023-05-19T17:53:08.606Z,101129.75
2023-05-19T17:55:37.413Z,101132.84
2023-05-19T17:58:06.534Z,101140.34
2023-05-19T18:00:35.169Z,101152.06
2023-05-19T18:03:04.145Z,101195.06
2023-05-19T18:05:34.859Z,101195.44
2023-05-19T18:08:04.652Z,101178.41
2023-05-19T18:10:36.572Z,101162.41
2023-05-19T18:13:05.349Z,101152.47
2023-05-19T18:15:33.805Z,101176.16
2023-05-19T18:18:02.133Z,101173.47
2023-05-19T18:20:30.419Z,101154.28
2023-05-19T18:22:59.535Z,101169.69
2023-05-19T18:25:27.321Z,101166.53
2023-05-19T18:27:55.196Z,101157.38
2023-05-19T18:30:25.840Z,101155.06
2023-05-19T18:32:53.544Z,101151.13
2023-05-19T18:35:21.441Z,101150.28
2023-05-19T18:37:49.354Z,101140.50
2023-05-19T18:40:18.581Z,101136.22
2023-05-19T18:42:46.382Z,101114.69
2023-05-19T18:45:14.402Z,101106.03
2023-05-19T18:47:42.123Z,101123.25
2023-05-19T18:50:10.686Z,101113.38
2023-05-19T18:52:38.702Z,101108.06
2023-05-19T18:55:07.507Z,101101.38
2023-05-19T18:57:36.727Z,101084.59
2023-05-19T19:00:05.846Z,101085.31
2023-05-19T19:02:33.869Z,101089.66
2023-05-19T19:05:01.859Z,101077.34
2023-05-19T19:07:30.093Z,101084.41
2023-05-19T19:09:58.158Z,101050.22
2023-05-19T19:12:31.099Z,101078.44
2023-05-19T19:15:00.935Z,101080.31
2023-05-19T19:17:28.833Z,101088.63
2023-05-19T19:19:56.816Z,101090.25
2023-05-19T19:22:24.704Z,101083.19
2023-05-19T19:24:52.321Z,101080.78
2023-05-19T19:27:20.121Z,101098.97
2023-05-19T19:29:47.814Z,101097.25
2023-05-19T19:32:38.450Z,101055.00
2023-05-19T19:35:10.221Z,101104.06
2023-05-19T19:37:39.331Z,101049.78
2023-05-19T19:40:12.170Z,101041.03
2023-05-19T19:42:40.485Z,101060.56
2023-05-19T19:45:09.208Z,101119.66
2023-05-19T19:47:39.798Z,101119.91
2023-05-19T19:50:08.701Z,101119.28
2023-05-19T19:52:36.794Z,101112.41
2023-05-19T19:55:05.305Z,101110.91
2023-05-19T19:57:33.126Z,101119.19
2023-05-19T20:00:01.041Z,101119.72
2023-05-19T20:02:28.993Z,101124.97
2023-05-19T20:04:58.248Z,101123.88
2023-05-19T20:07:48.205Z,101099.78
2023-05-19T20:10:17.461Z,101125.66
2023-05-19T20:12:45.458Z,101126.66
2023-05-19T20:15:13.157Z,101124.00
2023-05-19T20:17:41.407Z,101122.75
2023-05-19T20:20:12.066Z,101125.19
2023-05-19T20:22:40.374Z,101132.22
2023-05-19T20:25:09.146Z,101128.63
2023-05-19T20:27:37.251Z,101133.53
2023-05-19T20:30:05.957Z,101126.25
2023-05-19T20:32:33.893Z,101117.00
2023-05-19T20:35:01.716Z,101100.22
2023-05-19T20:37:31.026Z,101112.00
2023-05-19T20:39:58.911Z,101101.84
2023-05-19T20:42:26.512Z,101108.44
2023-05-19T20:44:54.267Z,101109.22
2023-05-19T20:47:21.989Z,101119.47
2023-05-19T20:49:49.835Z,101121.28
2023-05-19T20:52:17.764Z,101124.00
2023-05-19T20:54:46.776Z,101126.41
2023-05-19T20:57:14.495Z,101129.75
2023-05-19T20:59:45.764Z,101122.97
2023-05-19T21:02:14.081Z,101057.13
2023-05-19T21:04:41.933Z,101116.28
2023-05-19T21:07:10.028Z,101133.34
2023-05-19T21:09:41.989Z,101115.00
2023-05-19T21:12:12.787Z,101132.03
2023-05-19T21:14:40.647Z,101126.88
2023-05-19T21:17:08.487Z,101129.00
2023-05-19T21:19:37.747Z,101137.53
2023-05-19T21:22:08.903Z,101125.69
2023-05-19T21:24:42.922Z,101081.72
2023-05-19T21:27:12.485Z,101075.41
2023-05-19T21:29:40.373Z,101130.28
2023-05-19T21:32:08.445Z,101123.78
2023-05-19T21:34:36.530Z,101120.13
2023-05-19T21:37:04.532Z,101119.03
2023-05-19T21:39:32.427Z,101141.69
2023-05-19T21:42:00.063Z,101136.69
2023-05-19T21:44:29.410Z,101141.81
2023-05-19T21:46:57.385Z,101137.91
2023-05-19T21:49:25.308Z,101127.84
2023-05-19T21:51:53.078Z,101146.97
2023-05-19T21:54:20.913Z,101147.28
2023-05-19T21:56:48.627Z,101143.06
2023-05-19T21:59:16.376Z,101147.03
2023-05-19T22:01:45.821Z,101142.63
2023-05-19T22:04:13.464Z,101136.53
2023-05-19T22:06:41.212Z,101136.53
2023-05-19T22:09:09.169Z,101140.28
2023-05-19T22:11:38.060Z,101144.94
2023-05-19T22:14:05.912Z,101153.91
2023-05-19T22:16:34.067Z,101146.78
2023-05-19T22:19:03.226Z,101124.72
2023-05-19T22:21:31.128Z,101139.31
2023-05-19T22:23:59.003Z,101127.78
2023-05-19T22:26:26.696Z,101132.06
2023-05-19T22:28:55.933Z,101132.75
2023-05-19T22:31:23.998Z,101139.78
2023-05-19T22:33:51.755Z,101127.31
2023-05-19T22:36:20.976Z,101127.94
2023-05-19T22:38:48.884Z,101125.44
2023-05-19T22:41:16.561Z,101119.56
2023-05-19T22:43:44.445Z,101128.63
2023-05-19T22:46:12.251Z,101117.84
2023-05-19T22:48:40.013Z,101120.56
2023-05-19T22:51:08.030Z,101127.19
2023-05-19T22:53:37.571Z,101131.53
2023-05-19T22:56:05.656Z,101122.41
2023-05-19T22:58:33.676Z,101129.31
2023-05-19T23:01:01.416Z,101118.16
2023-05-19T23:03:29.213Z,101120.16
2023-05-19T23:05:57.013Z,101122.81
2023-05-19T23:08:25.042Z,101110.31
2023-05-19T23:10:54.098Z,101093.41
2023-05-19T23:13:22.342Z,101107.88
2023-05-19T23:15:50.065Z,101098.28
2023-05-19T23:18:17.890Z,101100.66
2023-05-19T23:20:45.706Z,101102.50
2023-05-19T23:23:13.704Z,101104.38
2023-05-19T23:25:41.414Z,101101.94
2023-05-19T23:28:10.560Z,101102.72
2023-05-19T23:30:38.696Z,101108.09
2023-05-19T23:33:06.379Z,101100.84
2023-05-19T23:35:34.476Z,101104.22
2023-05-19T23:38:02.599Z,101107.88
2023-05-19T23:40:30.293Z,101105.38
2023-05-19T23:42:58.161Z,101097.75
2023-05-19T23:45:27.457Z,101093.78
2023-05-19T23:47:55.120Z,101088.81
2023-05-19T23:50:22.863Z,101089.06
2023-05-19T23:52:51.009Z,101093.56
2023-05-19T23:55:18.753Z,101088.25
2023-05-19T23:57:46.606Z,101086.53
